Terminal Aerodrome Forecast
Issued by NWS

Home | Current Version | Previous Version | Text Only | Print | Product List | Glossary Off
Versions: 1 2 3 4 5 6 7 8 9 10 11 12 13 14 15 16 17 18 19 20 21 22 23 24 25 26

984
FTUS43 KLOT 151506 AAA
TAFMDW
TAF AMD
KMDW 151506Z 1515/1618 16010KT 3SM -SN BKN015 OVC020
      TEMPO 1515/1517 1 1/2SM -SN BR BKN011 OVC015
     FM151700 18004KT 4SM -SN OVC018
     FM151900 25010KT 5SM -SN BKN012 OVC020
     FM160000 27013KT P6SM SCT015 BKN025
     FM160600 29012KT 6SM -SN BKN025 PROB30 1607/1611 2SM -SHSN
     FM161400 32012KT P6SM BKN025=

USA.gov is the U.S. government's official web portal to all federal, state and local government web resources and services.